Cape Farewell — CFG7698 — position and weather

sailwx.info

Track history (hours):
 
Tides and Currents Weather Stations Pressure Air Temp Water Temp Dewpoint Dewpoint Depression Visibility Wind Speed Wind Dir Waves Ship Positions

Cape Farewell

Last reported at 2018-Jul-15 08:10 UTC. Time now 2018-Jul-15 20:42 UTC.
Position N 52°09' W 128°07'.

Type: SAR. MMSI: 316003545.

Date/timePositionNaut miles runAvg speedWind from/ knotsBaromVisibWave heightAir tempDewpointWater temp
2018-Jul-15 08:10N 52°09' W 128°07'1 0.0
2018-Jul-13 19:24N 52°10' W 128°08'0 0.7
2018-Jul-13 19:00N 52°10' W 128°08'2 4.5
2018-Jul-13 18:28N 52°12' W 128°07'1224.8
2018-Jul-13 17:58N 52°15' W 128°27'1022.5
2018-Jul-13 17:30N 52°16' W 128°44'0 0.1
2018-Jul-13 14:33N 52°16' W 128°43'523.9
2018-Jul-13 14:20N 52°15' W 128°35'1820.0
2018-Jul-13 13:27N 52°10' W 128°08'1 0.0
2018-Jul-12 11:28N 52°09' W 128°07'0 0.0
2018-Jul-12 10:58N 52°09' W 128°07'0 0.0
2018-Jul-12 08:58N 52°09' W 128°07'0 0.0
2018-Jul-12 08:10N 52°09' W 128°07'0 0.0
2018-Jul-12 07:58N 52°09' W 128°07'0 0.0
2018-Jul-12 07:22N 52°09' W 128°07'0 0.0
2018-Jul-11 18:50N 52°10' W 128°07'2 6.2
2018-Jul-11 18:30N 52°08' W 128°08'815.4
2018-Jul-11 18:00N 52°01' W 128°13'4 7.4
2018-Jul-11 17:30N 52°04' W 128°15'3 5.4
2018-Jul-11 16:58N 52°07' W 128°16'612.3
2018-Jul-11 16:30N 52°12' W 128°12'  
2018-Jul-09 07:17N 52°09' W 128°07'0 0.0
2018-Jul-08 20:47N 52°10' W 128°07'2 3.2
2018-Jul-08 20:17N 52°09' W 128°05'7 8.5
2018-Jul-08 19:26N 52°12' W 127°54'7 3.4
2018-Jul-08 17:24N 52°19' W 127°58'3 7.9
2018-Jul-08 17:00N 52°16' W 128°02'8 0.4
2018-Jul-07 22:05N 52°09' W 128°08'1 8.4
2018-Jul-07 22:00N 52°08' W 128°08'1 2.8
2018-Jul-07 21:30N 52°07' W 128°07'3 0.1
2018-Jul-05 23:20N 52°10' W 128°08'0 0.6
2018-Jul-05 22:47N 52°10' W 128°08'0 0.0
2018-Jul-05 22:29N 52°10' W 128°08'1 1.9
2018-Jul-05 22:00N 52°10' W 128°07'2 4.1
2018-Jul-05 21:30N 52°12' W 128°07'1224.0
2018-Jul-05 21:00N 52°15' W 128°25'1122.7
2018-Jul-05 20:30N 52°17' W 128°43'18 5.8
2018-Jul-05 17:30N 52°14' W 128°15'  
Track history (hours):
 
Tides and Currents Weather Stations Pressure Air Temp Water Temp Dewpoint Dewpoint Depression Visibility Wind Speed Wind Dir Waves Ship Positions

Cape Farewell

Last reported at 2018-Jul-15 08:10 UTC. Time now 2018-Jul-15 20:42 UTC.
Position N 52°09' W 128°07'.

Type: SAR. MMSI: 316003545.

Date/timePositionNaut miles runAvg speedWind from/ knotsBaromVisibWave heightAir tempDewpointWater temp
2018-Jul-15 08:10N 52°09' W 128°07'1 0.0
2018-Jul-13 19:24N 52°10' W 128°08'0 0.7
2018-Jul-13 19:00N 52°10' W 128°08'2 4.5
2018-Jul-13 18:28N 52°12' W 128°07'1224.8
2018-Jul-13 17:58N 52°15' W 128°27'1022.5
2018-Jul-13 17:30N 52°16' W 128°44'0 0.1
2018-Jul-13 14:33N 52°16' W 128°43'523.9
2018-Jul-13 14:20N 52°15' W 128°35'1820.0
2018-Jul-13 13:27N 52°10' W 128°08'1 0.0
2018-Jul-12 11:28N 52°09' W 128°07'0 0.0
2018-Jul-12 10:58N 52°09' W 128°07'0 0.0
2018-Jul-12 08:58N 52°09' W 128°07'0 0.0
2018-Jul-12 08:10N 52°09' W 128°07'0 0.0
2018-Jul-12 07:58N 52°09' W 128°07'0 0.0
2018-Jul-12 07:22N 52°09' W 128°07'0 0.0
2018-Jul-11 18:50N 52°10' W 128°07'2 6.2
2018-Jul-11 18:30N 52°08' W 128°08'815.4
2018-Jul-11 18:00N 52°01' W 128°13'4 7.4
2018-Jul-11 17:30N 52°04' W 128°15'3 5.4
2018-Jul-11 16:58N 52°07' W 128°16'612.3
2018-Jul-11 16:30N 52°12' W 128°12'  
2018-Jul-09 07:17N 52°09' W 128°07'0 0.0
2018-Jul-08 20:47N 52°10' W 128°07'2 3.2
2018-Jul-08 20:17N 52°09' W 128°05'7 8.5
2018-Jul-08 19:26N 52°12' W 127°54'7 3.4
2018-Jul-08 17:24N 52°19' W 127°58'3 7.9
2018-Jul-08 17:00N 52°16' W 128°02'8 0.4
2018-Jul-07 22:05N 52°09' W 128°08'1 8.4
2018-Jul-07 22:00N 52°08' W 128°08'1 2.8
2018-Jul-07 21:30N 52°07' W 128°07'3 0.1
2018-Jul-05 23:20N 52°10' W 128°08'0 0.6
2018-Jul-05 22:47N 52°10' W 128°08'0 0.0
2018-Jul-05 22:29N 52°10' W 128°08'1 1.9
2018-Jul-05 22:00N 52°10' W 128°07'2 4.1
2018-Jul-05 21:30N 52°12' W 128°07'1224.0
2018-Jul-05 21:00N 52°15' W 128°25'1122.7
2018-Jul-05 20:30N 52°17' W 128°43'18 5.8
2018-Jul-05 17:30N 52°14' W 128°15'  

Dump ship's entire track history